sensor_id;sensor_type;location;lat;lon;timestamp;pressure;altitude;pressure_sealevel;temperature;humidity
60319;BME280;46163;52.306;5.634;2023-04-29T00:01:55;101294.53;;;17.11;55.93
60319;BME280;46163;52.306;5.634;2023-04-29T00:04:24;101299.94;;;17.11;55.79
60319;BME280;46163;52.306;5.634;2023-04-29T00:06:49;101308.22;;;17.10;56.10
60319;BME280;46163;52.306;5.634;2023-04-29T00:09:15;101304.38;;;17.06;55.78
60319;BME280;46163;52.306;5.634;2023-04-29T00:11:40;101310.34;;;17.08;55.84
60319;BME280;46163;52.306;5.634;2023-04-29T00:14:06;101312.44;;;17.06;55.78
60319;BME280;46163;52.306;5.634;2023-04-29T00:16:31;101310.81;;;17.05;55.84
60319;BME280;46163;52.306;5.634;2023-04-29T00:18:57;101307.31;;;17.04;55.83
60319;BME280;46163;52.306;5.634;2023-04-29T00:21:23;101311.88;;;17.04;55.90
60319;BME280;46163;52.306;5.634;2023-04-29T00:23:52;101319.31;;;17.02;56.11
60319;BME280;46163;52.306;5.634;2023-04-29T00:26:18;101319.31;;;17.02;55.91
60319;BME280;46163;52.306;5.634;2023-04-29T00:28:43;101314.28;;;16.93;55.94
60319;BME280;46163;52.306;5.634;2023-04-29T00:31:09;101314.44;;;16.99;55.69
60319;BME280;46163;52.306;5.634;2023-04-29T00:33:34;101328.09;;;16.97;55.74
60319;BME280;46163;52.306;5.634;2023-04-29T00:36:00;101328.09;;;16.97;55.82
60319;BME280;46163;52.306;5.634;2023-04-29T00:38:26;101331.59;;;16.98;55.94
60319;BME280;46163;52.306;5.634;2023-04-29T00:40:51;101332.09;;;16.94;55.87
60319;BME280;46163;52.306;5.634;2023-04-29T00:43:17;101323.41;;;16.92;55.89
60319;BME280;46163;52.306;5.634;2023-04-29T00:45:43;101338.47;;;16.93;55.80
60319;BME280;46163;52.306;5.634;2023-04-29T00:48:10;101338.47;;;16.93;55.56
60319;BME280;46163;52.306;5.634;2023-04-29T00:50:35;101336.84;;;16.92;55.79
60319;BME280;46163;52.306;5.634;2023-04-29T00:53:01;101341.63;;;16.90;55.74
60319;BME280;46163;52.306;5.634;2023-04-29T00:55:27;101348.06;;;16.89;55.77
60319;BME280;46163;52.306;5.634;2023-04-29T00:57:53;101351.81;;;16.88;55.80
60319;BME280;46163;52.306;5.634;2023-04-29T01:00:18;101354.72;;;16.87;55.77
60319;BME280;46163;52.306;5.634;2023-04-29T01:02:45;101358.47;;;16.86;55.72
60319;BME280;46163;52.306;5.634;2023-04-29T01:05:10;101359.28;;;16.86;55.65
60319;BME280;46163;52.306;5.634;2023-04-29T01:07:44;101361.16;;;16.86;55.73
60319;BME280;46163;52.306;5.634;2023-04-29T01:10:21;101367.56;;;16.85;55.80
60319;BME280;46163;52.306;5.634;2023-04-29T01:18:16;101379.59;;;16.82;55.69
60319;BME280;46163;52.306;5.634;2023-04-29T01:20:43;101370.13;;;16.80;55.65
60319;BME280;46163;52.306;5.634;2023-04-29T01:23:10;101384.41;;;16.80;55.75
60319;BME280;46163;52.306;5.634;2023-04-29T01:25:35;101376.06;;;16.70;55.61
60319;BME280;46163;52.306;5.634;2023-04-29T01:31:09;101382.16;;;16.77;55.86
60319;BME280;46163;52.306;5.634;2023-04-29T01:33:50;101379.97;;;16.67;55.84
60319;BME280;46163;52.306;5.634;2023-04-29T01:41:43;101404.09;;;16.74;55.64
60319;BME280;46163;52.306;5.634;2023-04-29T01:44:14;101397.09;;;16.73;55.82
60319;BME280;46163;52.306;5.634;2023-04-29T01:46:42;101402.47;;;16.73;55.63
60319;BME280;46163;52.306;5.634;2023-04-29T01:49:08;101406.22;;;16.72;55.69
60319;BME280;46163;52.306;5.634;2023-04-29T01:51:33;101404.56;;;16.71;55.69
60319;BME280;46163;52.306;5.634;2023-04-29T01:53:59;101416.16;;;16.72;55.52
60319;BME280;46163;52.306;5.634;2023-04-29T01:56:24;101404.16;;;16.67;55.71
60319;BME280;46163;52.306;5.634;2023-04-29T01:58:50;101407.50;;;16.70;55.60
60319;BME280;46163;52.306;5.634;2023-04-29T02:01:15;101410.38;;;16.68;55.67
60319;BME280;46163;52.306;5.634;2023-04-29T02:03:41;101413.91;;;16.69;55.82
60319;BME280;46163;52.306;5.634;2023-04-29T02:06:07;101416.59;;;16.69;55.73
60319;BME280;46163;52.306;5.634;2023-04-29T02:08:32;101414.56;;;16.64;55.63
60319;BME280;46163;52.306;5.634;2023-04-29T02:10:58;101424.03;;;16.66;55.83
60319;BME280;46163;52.306;5.634;2023-04-29T02:13:24;101421.56;;;16.65;55.50
60319;BME280;46163;52.306;5.634;2023-04-29T02:15:50;101426.94;;;16.65;55.58
60319;BME280;46163;52.306;5.634;2023-04-29T02:18:15;101425.31;;;16.64;55.83
60319;BME280;46163;52.306;5.634;2023-04-29T02:20:41;101429.03;;;16.63;55.64
60319;BME280;46163;52.306;5.634;2023-04-29T02:23:07;101434.41;;;16.63;55.70
60319;BME280;46163;52.306;5.634;2023-04-29T02:25:33;101441.06;;;16.60;55.69
60319;BME280;46163;52.306;5.634;2023-04-29T02:27:58;101442.72;;;16.61;55.69
60319;BME280;46163;52.306;5.634;2023-04-29T02:30:24;101436.94;;;16.58;55.61
60319;BME280;46163;52.306;5.634;2023-04-29T02:32:49;101446.44;;;16.60;55.65
60319;BME280;46163;52.306;5.634;2023-04-29T02:35:15;101442.56;;;16.56;55.78
60319;BME280;46163;52.306;5.634;2023-04-29T02:37:43;101449.56;;;16.57;55.67
60319;BME280;46163;52.306;5.634;2023-04-29T02:40:09;101454.94;;;16.57;55.44
60319;BME280;46163;52.306;5.634;2023-04-29T02:42:35;101459.50;;;16.57;55.65
60319;BME280;46163;52.306;5.634;2023-04-29T02:45:01;101460.53;;;16.56;55.42
60319;BME280;46163;52.306;5.634;2023-04-29T02:47:26;101464.28;;;16.55;55.67
60319;BME280;46163;52.306;5.634;2023-04-29T02:49:52;101466.97;;;16.55;55.63
60319;BME280;46163;52.306;5.634;2023-04-29T02:52:17;101469.06;;;16.53;55.62
60319;BME280;46163;52.306;5.634;2023-04-29T02:54:43;101473.38;;;16.54;55.50
60319;BME280;46163;52.306;5.634;2023-04-29T02:57:08;101471.75;;;16.53;55.77
60319;BME280;46163;52.306;5.634;2023-04-29T02:59:34;101480.03;;;16.51;55.64
60319;BME280;46163;52.306;5.634;2023-04-29T03:02:00;101480.03;;;16.51;55.57
60319;BME280;46163;52.306;5.634;2023-04-29T03:04:26;101482.94;;;16.50;55.54
60319;BME280;46163;52.306;5.634;2023-04-29T03:06:54;101481.28;;;16.49;55.73
60319;BME280;46163;52.306;5.634;2023-04-29T03:09:20;101474.88;;;16.50;55.53
60319;BME280;46163;52.306;5.634;2023-04-29T03:11:46;101473.22;;;16.49;55.61
60319;BME280;46163;52.306;5.634;2023-04-29T03:14:11;101481.28;;;16.49;55.47
60319;BME280;46163;52.306;5.634;2023-04-29T03:16:37;101482.56;;;16.46;55.63
60319;BME280;46163;52.306;5.634;2023-04-29T03:19:02;101494.94;;;16.47;55.51
60319;BME280;46163;52.306;5.634;2023-04-29T03:21:27;101494.13;;;16.47;55.34
60319;BME280;46163;52.306;5.634;2023-04-29T03:23:54;101494.13;;;16.47;55.68
60319;BME280;46163;52.306;5.634;2023-04-29T03:26:20;101496.22;;;16.45;55.62
60319;BME280;46163;52.306;5.634;2023-04-29T03:28:48;101503.25;;;16.46;55.57
60319;BME280;46163;52.306;5.634;2023-04-29T03:31:14;101505.09;;;16.45;55.51
60319;BME280;46163;52.306;5.634;2023-04-29T03:33:40;101510.47;;;16.45;55.40
60319;BME280;46163;52.306;5.634;2023-04-29T03:36:06;101502.66;;;16.44;55.49
60319;BME280;46163;52.306;5.634;2023-04-29T03:38:33;101499.22;;;16.36;55.73
60319;BME280;46163;52.306;5.634;2023-04-29T03:40:58;101518.78;;;16.44;55.14
60319;BME280;46163;52.306;5.634;2023-04-29T03:43:24;101511.13;;;16.40;55.42
60319;BME280;46163;52.306;5.634;2023-04-29T03:45:49;101499.78;;;16.38;55.36
60319;BME280;46163;52.306;5.634;2023-04-29T03:48:15;101510.94;;;16.42;55.36
60319;BME280;46163;52.306;5.634;2023-04-29T03:50:41;101515.25;;;16.43;55.64
60319;BME280;46163;52.306;5.634;2023-04-29T03:53:06;101518.31;;;16.47;55.48
60319;BME280;46163;52.306;5.634;2023-04-29T03:55:32;101521.59;;;16.49;55.28
60319;BME280;46163;52.306;5.634;2023-04-29T03:57:58;101518.25;;;16.53;55.09
60319;BME280;46163;52.306;5.634;2023-04-29T04:00:23;101520.06;;;16.59;55.49
60319;BME280;46163;52.306;5.634;2023-04-29T04:02:50;101514.44;;;16.61;54.99
60319;BME280;46163;52.306;5.634;2023-04-29T04:05:16;101526.97;;;16.67;55.11
60319;BME280;46163;52.306;5.634;2023-04-29T04:07:45;101532.53;;;16.72;54.85
60319;BME280;46163;52.306;5.634;2023-04-29T04:10:10;101535.97;;;16.79;54.67
60319;BME280;46163;52.306;5.634;2023-04-29T04:12:36;101528.84;;;16.85;54.71
60319;BME280;46163;52.306;5.634;2023-04-29T04:15:01;101532.53;;;16.90;54.57
60319;BME280;46163;52.306;5.634;2023-04-29T04:17:28;101530.59;;;16.98;54.50
60319;BME280;46163;52.306;5.634;2023-04-29T04:19:54;101544.78;;;17.05;54.01
60319;BME280;46163;52.306;5.634;2023-04-29T04:22:19;101544.91;;;17.10;54.08
60319;BME280;46163;52.306;5.634;2023-04-29T04:24:45;101549.38;;;17.16;53.87
60319;BME280;46163;52.306;5.634;2023-04-29T04:27:10;101547.44;;;17.23;54.00
60319;BME280;46163;52.306;5.634;2023-04-29T04:29:35;101549.22;;;17.29;53.81
60319;BME280;46163;52.306;5.634;2023-04-29T04:32:01;101552.84;;;17.35;53.48
60319;BME280;46163;52.306;5.634;2023-04-29T04:34:26;101560.25;;;17.39;53.44
60319;BME280;46163;52.306;5.634;2023-04-29T04:36:52;101555.44;;;17.41;53.36
60319;BME280;46163;52.306;5.634;2023-04-29T04:39:17;101560.28;;;17.51;53.14
60319;BME280;46163;52.306;5.634;2023-04-29T04:41:43;101568.69;;;17.55;53.05
60319;BME280;46163;52.306;5.634;2023-04-29T04:44:08;101569.66;;;17.60;52.73
60319;BME280;46163;52.306;5.634;2023-04-29T04:46:36;101568.38;;;17.63;52.96
60319;BME280;46163;52.306;5.634;2023-04-29T04:49:04;101577.88;;;17.65;52.59
60319;BME280;46163;52.306;5.634;2023-04-29T04:51:30;101583.63;;;17.69;52.61
60319;BME280;46163;52.306;5.634;2023-04-29T04:53:55;101585.50;;;17.68;52.69
60319;BME280;46163;52.306;5.634;2023-04-29T04:56:21;101587.75;;;17.71;52.51
60319;BME280;46163;52.306;5.634;2023-04-29T04:58:46;101595.63;;;17.73;52.35
60319;BME280;46163;52.306;5.634;2023-04-29T05:01:12;101589.63;;;17.71;52.57
60319;BME280;46163;52.306;5.634;2023-04-29T05:03:37;101595.81;;;17.71;52.40
60319;BME280;46163;52.306;5.634;2023-04-29T05:06:03;101593.94;;;17.72;52.37
60319;BME280;46163;52.306;5.634;2023-04-29T05:08:29;101596.44;;;17.73;52.38
60319;BME280;46163;52.306;5.634;2023-04-29T05:10:54;101595.63;;;17.73;52.36
60319;BME280;46163;52.306;5.634;2023-04-29T05:13:20;101601.81;;;17.73;52.58
60319;BME280;46163;52.306;5.634;2023-04-29T05:15:45;101584.09;;;17.66;52.85
60319;BME280;46163;52.306;5.634;2023-04-29T05:18:11;101605.91;;;17.76;52.97
60319;BME280;46163;52.306;5.634;2023-04-29T05:20:37;101596.78;;;17.77;53.07
60319;BME280;46163;52.306;5.634;2023-04-29T05:23:02;101605.44;;;17.79;52.85
60319;BME280;46163;52.306;5.634;2023-04-29T05:25:28;101608.75;;;17.81;53.09
60319;BME280;46163;52.306;5.634;2023-04-29T05:27:54;101608.53;;;17.83;53.02
60319;BME280;46163;52.306;5.634;2023-04-29T05:30:19;101615.78;;;17.82;52.82
60319;BME280;46163;52.306;5.634;2023-04-29T05:32:45;101620.69;;;17.85;52.71
60319;BME280;46163;52.306;5.634;2023-04-29T05:35:11;101603.22;;;17.76;52.78
60319;BME280;46163;52.306;5.634;2023-04-29T05:37:36;101627.25;;;17.89;52.73
60319;BME280;46163;52.306;5.634;2023-04-29T05:40:02;101619.78;;;17.91;52.65
60319;BME280;46163;52.306;5.634;2023-04-29T05:42:28;101621.41;;;17.92;52.72
60319;BME280;46163;52.306;5.634;2023-04-29T05:44:53;101629.41;;;17.99;52.60
60319;BME280;46163;52.306;5.634;2023-04-29T05:47:19;101626.09;;;17.97;52.56
60319;BME280;46163;52.306;5.634;2023-04-29T05:49:45;101637.84;;;18.02;52.55
60319;BME280;46163;52.306;5.634;2023-04-29T05:52:10;101650.84;;;18.05;52.43
60319;BME280;46163;52.306;5.634;2023-04-29T05:54:36;101635.13;;;18.02;52.57
60319;BME280;46163;52.306;5.634;2023-04-29T05:57:01;101646.06;;;18.07;52.23
60319;BME280;46163;52.306;5.634;2023-04-29T05:59:30;101650.97;;;18.11;52.55
60319;BME280;46163;52.306;5.634;2023-04-29T06:01:57;101654.25;;;18.13;52.43
60319;BME280;46163;52.306;5.634;2023-04-29T06:04:23;101662.91;;;18.15;52.15
60319;BME280;46163;52.306;5.634;2023-04-29T06:06:52;101662.91;;;18.15;52.41
60319;BME280;46163;52.306;5.634;2023-04-29T06:09:22;101673.25;;;18.18;52.29
60319;BME280;46163;52.306;5.634;2023-04-29T06:11:51;101667.88;;;18.18;52.58
60319;BME280;46163;52.306;5.634;2023-04-29T06:14:17;101677.59;;;18.19;52.38
60319;BME280;46163;52.306;5.634;2023-04-29T06:16:42;101673.00;;;18.19;52.32
60319;BME280;46163;52.306;5.634;2023-04-29T06:19:08;101674.88;;;18.19;52.42
60319;BME280;46163;52.306;5.634;2023-04-29T06:21:34;101676.75;;;18.18;52.61
60319;BME280;46163;52.306;5.634;2023-04-29T06:23:59;101681.91;;;18.20;52.53
60319;BME280;46163;52.306;5.634;2023-04-29T06:26:25;101680.28;;;18.19;52.47
60319;BME280;46163;52.306;5.634;2023-04-29T06:28:50;101679.22;;;18.20;52.65
60319;BME280;46163;52.306;5.634;2023-04-29T06:31:15;101687.53;;;18.18;52.71
60319;BME280;46163;52.306;5.634;2023-04-29T06:33:41;101692.47;;;18.21;52.58
60319;BME280;46163;52.306;5.634;2023-04-29T06:36:07;101697.03;;;18.21;52.58
60319;BME280;46163;52.306;5.634;2023-04-29T06:38:32;101692.47;;;18.21;52.71
60319;BME280;46163;52.306;5.634;2023-04-29T06:40:58;101708.03;;;18.19;52.77
60319;BME280;46163;52.306;5.634;2023-04-29T06:43:28;101701.84;;;18.19;52.68
60319;BME280;46163;52.306;5.634;2023-04-29T06:45:53;101720.44;;;18.20;52.62
60319;BME280;46163;52.306;5.634;2023-04-29T06:48:19;101723.97;;;18.21;52.96
60319;BME280;46163;52.306;5.634;2023-04-29T06:50:53;101722.09;;;18.21;52.78
60319;BME280;46163;52.306;5.634;2023-04-29T06:53:19;101722.91;;;18.22;52.43
60319;BME280;46163;52.306;5.634;2023-04-29T06:55:46;101728.69;;;18.25;52.85
60319;BME280;46163;52.306;5.634;2023-04-29T06:58:15;101731.38;;;18.25;52.87
60319;BME280;46163;52.306;5.634;2023-04-29T07:00:48;101739.22;;;18.27;52.82
60319;BME280;46163;52.306;5.634;2023-04-29T07:03:15;101738.16;;;18.28;52.64
60319;BME280;46163;52.306;5.634;2023-04-29T07:05:42;101739.00;;;18.28;52.68
60319;BME280;46163;52.306;5.634;2023-04-29T07:08:10;101745.56;;;18.32;52.79
60319;BME280;46163;52.306;5.634;2023-04-29T07:10:35;101747.22;;;18.33;52.48
60319;BME280;46163;52.306;5.634;2023-04-29T07:13:01;101745.94;;;18.36;52.62
60319;BME280;46163;52.306;5.634;2023-04-29T07:15:27;101760.00;;;18.38;52.56
60319;BME280;46163;52.306;5.634;2023-04-29T07:17:52;101755.06;;;18.35;52.39
60319;BME280;46163;52.306;5.634;2023-04-29T07:20:18;101763.25;;;18.40;52.47
60319;BME280;46163;52.306;5.634;2023-04-29T07:22:44;101760.56;;;18.40;52.32
60319;BME280;46163;52.306;5.634;2023-04-29T07:25:12;101764.91;;;18.41;52.35
60319;BME280;46163;52.306;5.634;2023-04-29T07:27:38;101764.09;;;18.41;52.26
60319;BME280;46163;52.306;5.634;2023-04-29T07:30:04;101772.78;;;18.43;52.43
60319;BME280;46163;52.306;5.634;2023-04-29T07:32:30;101780.63;;;18.44;52.53
60319;BME280;46163;52.306;5.634;2023-04-29T07:35:02;101774.19;;;18.45;52.17
60319;BME280;46163;52.306;5.634;2023-04-29T07:37:27;101776.88;;;18.45;52.34
60319;BME280;46163;52.306;5.634;2023-04-29T07:39:53;101787.66;;;18.45;52.42
60319;BME280;46163;52.306;5.634;2023-04-29T07:42:19;101783.34;;;18.44;52.50
60319;BME280;46163;52.306;5.634;2023-04-29T07:44:44;101790.59;;;18.44;52.57
60319;BME280;46163;52.306;5.634;2023-04-29T07:47:10;101782.94;;;18.41;52.59
60319;BME280;46163;52.306;5.634;2023-04-29T07:49:36;101786.03;;;18.44;52.38
60319;BME280;46163;52.306;5.634;2023-04-29T07:52:04;101783.78;;;18.41;52.41
60319;BME280;46163;52.306;5.634;2023-04-29T07:54:29;101791.41;;;18.44;52.63
60319;BME280;46163;52.306;5.634;2023-04-29T07:56:57;101786.25;;;18.43;52.64
60319;BME280;46163;52.306;5.634;2023-04-29T07:59:22;101795.16;;;18.43;52.43
60319;BME280;46163;52.306;5.634;2023-04-29T08:01:48;101782.59;;;18.37;52.57
60319;BME280;46163;52.306;5.634;2023-04-29T08:04:13;101789.16;;;18.41;52.53
60319;BME280;46163;52.306;5.634;2023-04-29T08:06:39;101803.84;;;18.45;52.83
60319;BME280;46163;52.306;5.634;2023-04-29T08:09:06;101803.25;;;18.43;52.82
60319;BME280;46163;52.306;5.634;2023-04-29T08:11:32;101809.22;;;18.45;52.89
60319;BME280;46163;52.306;5.634;2023-04-29T08:13:57;101815.91;;;18.43;52.99
60319;BME280;46163;52.306;5.634;2023-04-29T08:16:24;101818.38;;;18.44;52.93
60319;BME280;46163;52.306;5.634;2023-04-29T08:18:51;101810.97;;;18.40;53.19
60319;BME280;46163;52.306;5.634;2023-04-29T08:21:17;101823.75;;;18.44;52.86
60319;BME280;46163;52.306;5.634;2023-04-29T08:23:43;101826.22;;;18.46;53.02
60319;BME280;46163;52.306;5.634;2023-04-29T08:26:10;101832.66;;;18.45;52.93
60319;BME280;46163;52.306;5.634;2023-04-29T08:28:37;101842.41;;;18.46;53.43
60319;BME280;46163;52.306;5.634;2023-04-29T08:31:02;101831.63;;;18.46;53.05
60319;BME280;46163;52.306;5.634;2023-04-29T08:33:30;101839.69;;;18.46;52.92
60319;BME280;46163;52.306;5.634;2023-04-29T08:35:59;101839.47;;;18.47;52.81
60319;BME280;46163;52.306;5.634;2023-04-29T08:38:30;101832.19;;;18.48;53.11
60319;BME280;46163;52.306;5.634;2023-04-29T08:40:56;101836.53;;;18.49;52.72
60319;BME280;46163;52.306;5.634;2023-04-29T08:43:23;101842.75;;;18.49;53.02
60319;BME280;46163;52.306;5.634;2023-04-29T08:45:49;101835.28;;;18.51;53.11
60319;BME280;46163;52.306;5.634;2023-04-29T08:48:16;101840.66;;;18.51;53.00
60319;BME280;46163;52.306;5.634;2023-04-29T08:50:42;101834.81;;;18.54;52.38
60319;BME280;46163;52.306;5.634;2023-04-29T08:53:09;101843.47;;;18.56;52.50
60319;BME280;46163;52.306;5.634;2023-04-29T08:55:39;101845.13;;;18.57;52.75
60319;BME280;46163;52.306;5.634;2023-04-29T08:58:06;101842.44;;;18.57;52.39
60319;BME280;46163;52.306;5.634;2023-04-29T09:00:33;101842.56;;;18.62;52.76
60319;BME280;46163;52.306;5.634;2023-04-29T09:03:00;101851.25;;;18.64;52.52
60319;BME280;46163;52.306;5.634;2023-04-29T09:05:29;101849.41;;;18.65;52.65
60319;BME280;46163;52.306;5.634;2023-04-29T09:07:57;101857.25;;;18.67;52.39
60319;BME280;46163;52.306;5.634;2023-04-29T09:10:24;101854.72;;;18.72;52.38
60319;BME280;46163;52.306;5.634;2023-04-29T09:12:50;101856.94;;;18.75;52.48
60319;BME280;46163;52.306;5.634;2023-04-29T09:15:16;101857.56;;;18.77;52.40
60319;BME280;46163;52.306;5.634;2023-04-29T09:17:45;101866.22;;;18.79;52.04
60319;BME280;46163;52.306;5.634;2023-04-29T09:22:47;101866.66;;;18.76;52.32
60319;BME280;46163;52.306;5.634;2023-04-29T09:25:14;101868.53;;;18.75;52.01
60319;BME280;46163;52.306;5.634;2023-04-29T09:27:39;101868.53;;;18.75;52.17
60319;BME280;46163;52.306;5.634;2023-04-29T09:30:05;101871.47;;;18.74;52.04
60319;BME280;46163;52.306;5.634;2023-04-29T09:32:31;101873.59;;;18.72;52.17
60319;BME280;46163;52.306;5.634;2023-04-29T09:34:57;101877.91;;;18.73;52.61
60319;BME280;46163;52.306;5.634;2023-04-29T09:37:24;101874.63;;;18.71;52.51
60319;BME280;46163;52.306;5.634;2023-04-29T09:39:51;101880.63;;;18.73;52.83
60319;BME280;46163;52.306;5.634;2023-04-29T09:42:17;101873.13;;;18.75;52.53
60319;BME280;46163;52.306;5.634;2023-04-29T09:44:43;101881.66;;;18.72;52.53
60319;BME280;46163;52.306;5.634;2023-04-29T09:47:09;101886.47;;;18.70;52.65
60319;BME280;46163;52.306;5.634;2023-04-29T09:49:38;101890.81;;;18.71;52.69
60319;BME280;46163;52.306;5.634;2023-04-29T09:52:08;101880.25;;;18.69;52.60
60319;BME280;46163;52.306;5.634;2023-04-29T09:54:35;101877.78;;;18.68;52.39
60319;BME280;46163;52.306;5.634;2023-04-29T09:57:03;101888.13;;;18.71;52.34
60319;BME280;46163;52.306;5.634;2023-04-29T09:59:37;101890.22;;;18.69;52.51
60319;BME280;46163;52.306;5.634;2023-04-29T10:02:23;101894.56;;;18.70;52.61
60319;BME280;46163;52.306;5.634;2023-04-29T10:04:53;101900.63;;;18.65;52.22
60319;BME280;46163;52.306;5.634;2023-04-29T10:07:22;101906.19;;;18.70;52.30
60319;BME280;46163;52.306;5.634;2023-04-29T10:09:50;101898.91;;;18.71;52.39
60319;BME280;46163;52.306;5.634;2023-04-29T10:12:18;101892.47;;;18.72;52.15
60319;BME280;46163;52.306;5.634;2023-04-29T10:14:47;101894.44;;;18.76;52.20
60319;BME280;46163;52.306;5.634;2023-04-29T10:17:22;101903.75;;;18.80;51.96
60319;BME280;46163;52.306;5.634;2023-04-29T10:19:57;101899.41;;;18.79;51.96
60319;BME280;46163;52.306;5.634;2023-04-29T10:22:33;101895.88;;;18.79;51.64
60319;BME280;46163;52.306;5.634;2023-04-29T10:25:00;101891.66;;;18.83;51.62
60319;BME280;46163;52.306;5.634;2023-04-29T10:27:28;101883.56;;;18.83;51.59
60319;BME280;46163;52.306;5.634;2023-04-29T10:29:57;101901.41;;;18.84;51.75
60319;BME280;46163;52.306;5.634;2023-04-29T10:32:23;101895.56;;;18.87;51.48
60319;BME280;46163;52.306;5.634;2023-04-29T10:34:52;101896.97;;;18.89;51.72
60319;BME280;46163;52.306;5.634;2023-04-29T10:37:20;101898.63;;;18.90;51.69
60319;BME280;46163;52.306;5.634;2023-04-29T10:39:54;101903.53;;;18.93;51.46
60319;BME280;46163;52.306;5.634;2023-04-29T10:42:50;101905.56;;;18.98;51.45
60319;BME280;46163;52.306;5.634;2023-04-29T10:45:27;101899.50;;;19.03;51.61
60319;BME280;46163;52.306;5.634;2023-04-29T10:53:02;101906.19;;;19.12;52.00
60319;BME280;46163;52.306;5.634;2023-04-29T10:55:28;101899.50;;;19.14;52.06
60319;BME280;46163;52.306;5.634;2023-04-29T10:57:54;101907.34;;;19.16;52.11
60319;BME280;46163;52.306;5.634;2023-04-29T11:00:29;101906.69;;;19.20;52.08
60319;BME280;46163;52.306;5.634;2023-04-29T11:03:00;101904.31;;;19.24;52.13
60319;BME280;46163;52.306;5.634;2023-04-29T11:05:36;101900.66;;;19.18;52.33
60319;BME280;46163;52.306;5.634;2023-04-29T11:08:28;101900.34;;;19.27;52.07
60319;BME280;46163;52.306;5.634;2023-04-29T11:10:59;101899.06;;;19.29;52.55
60319;BME280;46163;52.306;5.634;2023-04-29T11:13:29;101905.88;;;19.32;52.27
60319;BME280;46163;52.306;5.634;2023-04-29T11:16:09;101900.81;;;19.35;52.31
60319;BME280;46163;52.306;5.634;2023-04-29T11:21:36;101899.41;;;19.44;52.14
60319;BME280;46163;52.306;5.634;2023-04-29T11:24:03;101894.38;;;19.48;52.09
60319;BME280;46163;52.306;5.634;2023-04-29T11:26:34;101896.59;;;19.51;51.96
60319;BME280;46163;52.306;5.634;2023-04-29T11:29:04;101895.09;;;19.55;52.09
60319;BME280;46163;52.306;5.634;2023-04-29T11:31:30;101883.59;;;19.48;52.26
60319;BME280;46163;52.306;5.634;2023-04-29T11:33:57;101894.97;;;19.50;52.28
60319;BME280;46163;52.306;5.634;2023-04-29T11:36:23;101898.13;;;19.47;52.44
60319;BME280;46163;52.306;5.634;2023-04-29T11:38:49;101903.06;;;19.50;52.28
60319;BME280;46163;52.306;5.634;2023-04-29T11:41:14;101893.91;;;19.51;52.22
60319;BME280;46163;52.306;5.634;2023-04-29T11:43:40;101896.13;;;19.54;52.18
60319;BME280;46163;52.306;5.634;2023-04-29T11:46:13;101904.69;;;19.51;52.22
60319;BME280;46163;52.306;5.634;2023-04-29T11:48:47;101906.09;;;19.54;52.47
60319;BME280;46163;52.306;5.634;2023-04-29T11:51:14;101902.75;;;19.58;52.12
60319;BME280;46163;52.306;5.634;2023-04-29T11:53:40;101901.22;;;19.62;51.99
60319;BME280;46163;52.306;5.634;2023-04-29T11:56:08;101900.88;;;19.59;52.16
60319;BME280;46163;52.306;5.634;2023-04-29T11:58:34;101904.88;;;19.56;52.17
60319;BME280;46163;52.306;5.634;2023-04-29T12:01:01;101907.56;;;19.56;52.12
60319;BME280;46163;52.306;5.634;2023-04-29T12:03:27;101910.03;;;19.58;51.95
60319;BME280;46163;52.306;5.634;2023-04-29T12:05:53;101907.91;;;19.60;51.98
60319;BME280;46163;52.306;5.634;2023-04-29T12:08:25;101907.09;;;19.59;51.85
60319;BME280;46163;52.306;5.634;2023-04-29T12:10:55;101913.31;;;19.60;51.87
60319;BME280;46163;52.306;5.634;2023-04-29T12:13:27;101905.22;;;19.60;51.86
60319;BME280;46163;52.306;5.634;2023-04-29T12:15:53;101908.25;;;19.63;51.76
60319;BME280;46163;52.306;5.634;2023-04-29T12:18:20;101912.72;;;19.69;51.69
60319;BME280;46163;52.306;5.634;2023-04-29T12:20:48;101907.91;;;19.71;51.46
60319;BME280;46163;52.306;5.634;2023-04-29T12:23:23;101912.84;;;19.74;51.55
60319;BME280;46163;52.306;5.634;2023-04-29T12:25:58;101913.31;;;19.71;51.55
60319;BME280;46163;52.306;5.634;2023-04-29T12:28:25;101917.19;;;19.75;51.37
60319;BME280;46163;52.306;5.634;2023-04-29T12:30:52;101901.69;;;19.71;51.48
60319;BME280;46163;52.306;5.634;2023-04-29T12:33:25;101920.84;;;19.81;51.25
60319;BME280;46163;52.306;5.634;2023-04-29T12:35:53;101919.53;;;19.84;51.27
60319;BME280;46163;52.306;5.634;2023-04-29T12:38:39;101917.75;;;19.89;51.17
60319;BME280;46163;52.306;5.634;2023-04-29T12:41:06;101906.94;;;19.89;51.21
60319;BME280;46163;52.306;5.634;2023-04-29T12:43:32;101915.66;;;19.91;51.07
60319;BME280;46163;52.306;5.634;2023-04-29T12:46:07;101914.34;;;19.94;50.94
60319;BME280;46163;52.306;5.634;2023-04-29T12:48:35;101912.81;;;19.98;50.81
60319;BME280;46163;52.306;5.634;2023-04-29T12:51:03;101922.22;;;19.95;51.05
60319;BME280;46163;52.306;5.634;2023-04-29T12:53:29;101924.69;;;19.97;50.86
60319;BME280;46163;52.306;5.634;2023-04-29T12:55:55;101923.03;;;19.96;51.07
60319;BME280;46163;52.306;5.634;2023-04-29T12:58:21;101924.34;;;19.93;51.11
60319;BME280;46163;52.306;5.634;2023-04-29T13:00:47;101927.16;;;19.98;50.97
60319;BME280;46163;52.306;5.634;2023-04-29T13:03:13;101924.56;;;20.03;50.83
60319;BME280;46163;52.306;5.634;2023-04-29T13:05:39;101920.22;;;20.02;50.72
60319;BME280;46163;52.306;5.634;2023-04-29T13:08:05;101929.63;;;20.00;50.78
60319;BME280;46163;52.306;5.634;2023-04-29T13:10:31;101928.00;;;19.99;50.89
60319;BME280;46163;52.306;5.634;2023-04-29T13:12:58;101926.94;;;20.00;50.72
60319;BME280;46163;52.306;5.634;2023-04-29T13:15:24;101930.78;;;20.04;50.81